createdAt,value
2023-05-17T00:01:33.052Z,13.81
2023-05-17T00:04:04.070Z,13.67
2023-05-17T00:06:32.154Z,13.30
2023-05-17T00:09:10.108Z,13.35
2023-05-17T00:11:44.086Z,12.96
2023-05-17T00:14:11.903Z,12.71
2023-05-17T00:16:43.760Z,12.68
2023-05-17T00:19:11.614Z,12.78
2023-05-17T00:21:39.376Z,13.29
2023-05-17T00:24:07.568Z,13.29
2023-05-17T00:26:35.320Z,13.52
2023-05-17T00:29:03.681Z,13.37
2023-05-17T00:31:31.171Z,13.25
2023-05-17T00:34:06.275Z,12.99
2023-05-17T00:36:33.839Z,13.17
2023-05-17T00:39:01.439Z,13.13
2023-05-17T00:41:28.982Z,13.11
2023-05-17T00:43:57.848Z,12.76
2023-05-17T00:46:25.419Z,12.95
2023-05-17T00:49:04.943Z,12.71
2023-05-17T00:51:32.996Z,12.98
2023-05-17T00:54:00.785Z,12.47
2023-05-17T00:56:28.579Z,12.76
2023-05-17T00:58:56.417Z,12.48
2023-05-17T01:01:24.065Z,12.49
2023-05-17T01:04:14.824Z,12.78
2023-05-17T01:06:42.577Z,12.85
2023-05-17T01:09:10.986Z,12.88
2023-05-17T01:11:48.001Z,12.99
2023-05-17T01:14:29.252Z,13.09
2023-05-17T01:17:02.249Z,12.80
2023-05-17T01:20:00.797Z,12.49
2023-05-17T01:22:37.612Z,12.76
2023-05-17T01:25:30.024Z,12.92
2023-05-17T01:28:02.526Z,12.95
2023-05-17T01:30:33.609Z,12.99
2023-05-17T01:33:13.878Z,12.69
2023-05-17T01:35:41.722Z,12.37
2023-05-17T01:38:09.200Z,12.57
2023-05-17T01:40:45.381Z,12.41
2023-05-17T01:43:22.784Z,12.63
2023-05-17T01:45:58.500Z,12.05
2023-05-17T01:48:32.535Z,12.47
2023-05-17T01:51:01.167Z,12.30
2023-05-17T01:53:32.189Z,12.44
2023-05-17T01:56:04.684Z,12.20
2023-05-17T01:58:37.985Z,12.05
2023-05-17T02:01:06.215Z,12.40
2023-05-17T02:03:33.950Z,12.28
2023-05-17T02:06:01.657Z,12.29
2023-05-17T02:08:29.210Z,12.50
2023-05-17T02:10:56.751Z,12.46
2023-05-17T02:13:24.606Z,12.34
2023-05-17T02:15:53.541Z,12.54
2023-05-17T02:18:22.165Z,12.50
2023-05-17T02:20:49.910Z,12.58
2023-05-17T02:23:17.446Z,12.38
2023-05-17T02:25:45.101Z,12.54
2023-05-17T02:28:12.531Z,12.47
2023-05-17T02:30:41.669Z,12.57
2023-05-17T02:33:10.788Z,12.85
2023-05-17T02:35:38.403Z,12.48
2023-05-17T02:38:06.020Z,12.74
2023-05-17T02:40:33.874Z,12.28
2023-05-17T02:43:01.652Z,12.84
2023-05-17T02:45:38.411Z,12.86
2023-05-17T02:48:06.293Z,12.51
2023-05-17T02:50:35.451Z,12.75
2023-05-17T02:53:03.055Z,12.78
2023-05-17T02:55:30.879Z,12.47
2023-05-17T02:57:58.385Z,12.73
2023-05-17T03:00:26.208Z,12.86
2023-05-17T03:02:53.862Z,12.71
2023-05-17T03:05:21.594Z,12.27
2023-05-17T03:07:50.823Z,12.32
2023-05-17T03:10:18.520Z,12.51
2023-05-17T03:12:46.386Z,12.19
2023-05-17T03:15:20.996Z,12.49
2023-05-17T03:17:48.760Z,12.58
2023-05-17T03:20:16.853Z,11.99
2023-05-17T03:22:47.529Z,11.98
2023-05-17T03:25:16.792Z,12.30
2023-05-17T03:27:46.946Z,11.76
2023-05-17T03:30:15.024Z,12.03
2023-05-17T03:32:43.258Z,12.46
2023-05-17T03:35:11.320Z,12.05
2023-05-17T03:37:39.255Z,12.01
2023-05-17T03:40:07.890Z,12.42
2023-05-17T03:42:37.050Z,12.35
2023-05-17T03:45:06.340Z,11.52
2023-05-17T03:47:34.109Z,11.88
2023-05-17T03:50:02.054Z,11.68
2023-05-17T03:52:29.651Z,11.34
2023-05-17T03:54:57.541Z,11.15
2023-05-17T03:57:25.204Z,11.31
2023-05-17T04:00:01.720Z,12.37
2023-05-17T04:02:29.265Z,12.73
2023-05-17T04:04:56.967Z,12.25
2023-05-17T04:07:24.775Z,13.16
2023-05-17T04:09:52.319Z,15.39
2023-05-17T04:12:19.954Z,16.21
2023-05-17T04:14:47.538Z,15.24
2023-05-17T04:17:22.893Z,13.21
2023-05-17T04:19:50.838Z,13.73
2023-05-17T04:22:18.363Z,17.01
2023-05-17T04:25:04.074Z,18.03
2023-05-17T04:27:32.025Z,17.53
2023-05-17T04:30:09.723Z,16.38
2023-05-17T04:32:38.926Z,16.85
2023-05-17T04:35:10.478Z,15.73
2023-05-17T04:37:39.800Z,16.19
2023-05-17T04:40:16.589Z,15.47
2023-05-17T04:42:46.095Z,14.92
2023-05-17T04:45:15.492Z,15.65
2023-05-17T04:48:02.635Z,15.66
2023-05-17T04:50:30.603Z,14.04
2023-05-17T04:53:07.220Z,13.21
2023-05-17T04:55:40.767Z,13.22
2023-05-17T04:58:09.435Z,12.48
2023-05-17T05:00:37.323Z,12.66
2023-05-17T05:03:07.633Z,13.25
2023-05-17T05:05:35.776Z,13.46
2023-05-17T05:08:03.673Z,12.73
2023-05-17T05:13:28.949Z,13.33
2023-05-17T05:15:56.661Z,13.94
2023-05-17T05:18:25.650Z,13.41
2023-05-17T05:21:07.678Z,13.33
2023-05-17T05:23:37.366Z,11.84
2023-05-17T05:26:05.839Z,12.79
2023-05-17T05:28:33.383Z,12.72
2023-05-17T05:31:01.510Z,13.92
2023-05-17T05:36:13.379Z,12.87
2023-05-17T05:38:41.021Z,12.52
2023-05-17T05:41:08.474Z,12.46
2023-05-17T05:43:37.404Z,12.30
2023-05-17T05:46:05.533Z,11.81
2023-05-17T05:48:34.382Z,11.73
2023-05-17T05:51:02.480Z,11.90
2023-05-17T05:53:30.228Z,12.33
2023-05-17T05:55:57.859Z,12.93
2023-05-17T05:58:25.915Z,11.59
2023-05-17T06:00:53.598Z,13.07
2023-05-17T06:03:21.379Z,12.57
2023-05-17T06:05:50.273Z,11.82
2023-05-17T06:08:34.860Z,12.14
2023-05-17T06:11:02.875Z,11.47
2023-05-17T06:13:53.779Z,11.47
2023-05-17T06:16:19.378Z,10.72
2023-05-17T06:18:50.908Z,11.04
2023-05-17T06:21:20.239Z,11.23
2023-05-17T06:23:48.122Z,11.02
2023-05-17T06:26:15.729Z,11.24
2023-05-17T06:28:48.065Z,11.21
2023-05-17T06:31:27.453Z,11.74
2023-05-17T06:33:56.972Z,11.65
2023-05-17T06:36:26.088Z,11.63
2023-05-17T06:38:59.206Z,11.95
2023-05-17T06:41:26.870Z,11.34
2023-05-17T06:43:54.314Z,11.72
2023-05-17T06:46:22.225Z,11.93
2023-05-17T06:48:51.219Z,13.00
2023-05-17T06:51:22.364Z,12.44
2023-05-17T06:53:51.465Z,11.86
2023-05-17T06:56:19.061Z,12.19
2023-05-17T06:58:46.731Z,11.83
2023-05-17T07:01:14.530Z,11.42
2023-05-17T07:03:42.037Z,11.41
2023-05-17T07:06:09.820Z,11.89
2023-05-17T07:11:20.426Z,11.55
2023-05-17T07:13:49.993Z,11.70
2023-05-17T07:16:18.943Z,11.42
2023-05-17T07:18:46.606Z,11.30
2023-05-17T07:21:38.088Z,11.98
2023-05-17T07:24:06.778Z,12.69
2023-05-17T07:26:38.341Z,12.21
2023-05-17T07:29:06.107Z,11.74
2023-05-17T07:31:33.613Z,11.68
2023-05-17T07:34:04.368Z,12.88
2023-05-17T07:36:32.244Z,13.14
2023-05-17T07:39:00.725Z,12.07
2023-05-17T07:41:28.518Z,12.03
2023-05-17T07:43:57.452Z,12.19
2023-05-17T07:46:25.077Z,11.96
2023-05-17T07:49:00.431Z,12.14
2023-05-17T07:51:28.087Z,12.41
2023-05-17T07:54:24.438Z,12.14
2023-05-17T07:56:53.208Z,12.55
2023-05-17T07:59:22.245Z,12.85
2023-05-17T08:01:50.115Z,13.00
2023-05-17T08:04:19.389Z,12.66
2023-05-17T08:06:48.328Z,12.47
2023-05-17T08:09:16.888Z,12.38
2023-05-17T08:11:48.482Z,12.27
2023-05-17T08:14:16.799Z,12.68
2023-05-17T08:16:47.225Z,12.28
2023-05-17T08:19:16.328Z,12.52
2023-05-17T08:21:46.243Z,12.92
2023-05-17T08:24:15.643Z,12.79
2023-05-17T08:26:43.544Z,12.84
2023-05-17T08:29:11.388Z,13.21
2023-05-17T08:31:39.261Z,13.02
2023-05-17T08:34:21.605Z,13.54
2023-05-17T08:36:49.307Z,13.24
2023-05-17T08:39:17.642Z,13.13
2023-05-17T08:41:47.575Z,12.35
2023-05-17T08:44:16.651Z,12.34
2023-05-17T08:46:44.986Z,12.28
2023-05-17T08:49:17.584Z,12.75
2023-05-17T08:51:47.547Z,13.19
2023-05-17T08:54:15.264Z,12.92
2023-05-17T08:56:44.207Z,13.72
2023-05-17T08:59:13.580Z,13.22
2023-05-17T09:01:44.185Z,12.98
2023-05-17T09:04:11.868Z,12.85
2023-05-17T09:06:41.414Z,12.54
2023-05-17T09:09:09.172Z,12.84
2023-05-17T09:11:36.630Z,12.50
2023-05-17T09:14:06.161Z,12.97
2023-05-17T09:16:35.076Z,12.61
2023-05-17T09:19:04.680Z,12.81
2023-05-17T09:21:33.030Z,12.84
2023-05-17T09:24:07.041Z,13.40
2023-05-17T09:26:42.612Z,12.91
2023-05-17T09:29:11.625Z,12.87
2023-05-17T09:31:39.696Z,13.59
2023-05-17T09:34:08.730Z,13.55
2023-05-17T09:36:37.458Z,12.83
2023-05-17T09:39:11.937Z,13.69
2023-05-17T09:41:43.196Z,14.16
2023-05-17T09:44:12.028Z,13.63
2023-05-17T09:46:43.215Z,13.54
2023-05-17T09:49:10.807Z,13.48
2023-05-17T09:51:41.605Z,13.46
2023-05-17T09:54:11.121Z,13.30
2023-05-17T09:56:39.329Z,13.39
2023-05-17T09:59:12.991Z,13.59
2023-05-17T10:01:45.316Z,13.57
2023-05-17T10:04:20.593Z,13.88
2023-05-17T10:06:51.961Z,13.74
2023-05-17T10:09:23.680Z,13.41
2023-05-17T10:11:53.902Z,14.01
2023-05-17T10:14:25.126Z,13.75
2023-05-17T10:16:53.462Z,13.95
2023-05-17T10:19:21.968Z,14.21
2023-05-17T10:21:51.049Z,13.94
2023-05-17T10:24:20.533Z,13.59
2023-05-17T10:26:51.992Z,13.32
2023-05-17T10:29:20.958Z,13.66
2023-05-17T10:31:56.381Z,13.59
2023-05-17T10:34:24.861Z,13.94
2023-05-17T10:36:53.658Z,13.60
2023-05-17T10:39:22.980Z,13.88
2023-05-17T10:42:00.540Z,14.33
2023-05-17T10:44:40.924Z,13.67
2023-05-17T10:47:09.648Z,13.70
2023-05-17T10:49:40.204Z,14.09
2023-05-17T10:52:21.006Z,13.99
2023-05-17T10:54:49.936Z,14.39
2023-05-17T10:57:23.841Z,14.02
2023-05-17T11:00:12.350Z,14.40
2023-05-17T11:03:12.531Z,14.28
2023-05-17T11:05:43.759Z,14.63
2023-05-17T11:08:17.145Z,14.22
2023-05-17T11:11:11.031Z,14.87
2023-05-17T11:13:47.772Z,15.30
2023-05-17T11:16:18.117Z,14.72
2023-05-17T11:18:50.321Z,14.43
2023-05-17T11:21:18.226Z,14.77
2023-05-17T11:23:46.932Z,14.44
2023-05-17T11:26:23.204Z,14.76
2023-05-17T11:29:04.772Z,14.98
2023-05-17T11:31:33.507Z,15.12
2023-05-17T11:34:03.790Z,15.04
2023-05-17T11:36:40.832Z,14.93
2023-05-17T11:39:12.953Z,15.21
2023-05-17T11:41:48.520Z,15.24
2023-05-17T11:44:19.327Z,14.69
2023-05-17T11:46:47.706Z,14.48
2023-05-17T11:49:26.854Z,14.59
2023-05-17T11:52:02.356Z,14.66
2023-05-17T11:54:31.939Z,14.66
2023-05-17T11:57:00.845Z,15.08
2023-05-17T11:59:29.822Z,14.85
2023-05-17T12:01:57.511Z,15.55
2023-05-17T12:04:27.027Z,14.41
2023-05-17T12:06:56.361Z,15.04
2023-05-17T12:09:24.393Z,15.14
2023-05-17T12:11:52.079Z,14.43
2023-05-17T12:14:31.302Z,14.56
2023-05-17T12:17:02.487Z,14.25
2023-05-17T12:19:32.515Z,14.73
2023-05-17T12:22:08.283Z,15.17
2023-05-17T12:24:39.833Z,14.46
2023-05-17T12:27:07.965Z,14.54
2023-05-17T12:29:37.344Z,14.89
2023-05-17T12:32:07.505Z,14.59
2023-05-17T12:34:35.428Z,14.57
2023-05-17T12:37:04.229Z,14.88
2023-05-17T12:39:32.601Z,15.12
2023-05-17T12:42:01.700Z,14.99
2023-05-17T12:44:29.599Z,15.38
2023-05-17T12:46:58.620Z,15.27
2023-05-17T12:49:26.219Z,14.53
2023-05-17T12:51:53.677Z,15.01
2023-05-17T12:54:28.817Z,14.74
2023-05-17T12:56:59.829Z,15.00
2023-05-17T12:59:29.070Z,15.01
2023-05-17T13:02:00.602Z,15.17
2023-05-17T13:04:32.999Z,15.40
2023-05-17T13:07:02.316Z,15.39
2023-05-17T13:09:43.648Z,15.43
2023-05-17T13:12:18.553Z,15.16
2023-05-17T13:14:47.847Z,14.83
2023-05-17T13:17:21.503Z,15.19
2023-05-17T13:19:49.958Z,15.27
2023-05-17T13:22:17.559Z,14.83
2023-05-17T13:24:45.892Z,14.93
2023-05-17T13:27:13.939Z,15.17
2023-05-17T13:29:45.962Z,15.02
2023-05-17T13:32:14.654Z,15.31
2023-05-17T13:34:44.136Z,15.71
2023-05-17T13:37:12.670Z,15.24
2023-05-17T13:39:40.960Z,15.69
2023-05-17T13:42:08.582Z,15.24
2023-05-17T13:44:36.250Z,15.11
2023-05-17T13:47:03.952Z,14.97
2023-05-17T13:49:31.635Z,14.86
2023-05-17T13:52:00.816Z,15.44
2023-05-17T13:54:28.460Z,16.06
2023-05-17T13:56:57.390Z,15.93
2023-05-17T13:59:24.898Z,15.32
2023-05-17T14:01:53.693Z,15.94
2023-05-17T14:04:22.671Z,15.54
2023-05-17T14:06:54.088Z,15.71
2023-05-17T14:09:23.973Z,15.71
2023-05-17T14:11:51.658Z,15.90
2023-05-17T14:14:19.246Z,15.64
2023-05-17T14:16:46.702Z,16.29
2023-05-17T14:19:14.307Z,16.29
2023-05-17T14:21:42.032Z,15.73
2023-05-17T14:24:09.784Z,16.00
2023-05-17T14:26:39.071Z,15.74
2023-05-17T14:29:06.766Z,15.70
2023-05-17T14:31:34.464Z,16.04
2023-05-17T14:34:03.811Z,15.74
2023-05-17T14:36:31.840Z,16.17
2023-05-17T14:38:59.517Z,15.88
2023-05-17T14:41:27.166Z,15.47
2023-05-17T14:43:56.124Z,16.03
2023-05-17T14:46:24.313Z,16.24
2023-05-17T14:48:56.345Z,16.18
2023-05-17T14:51:24.988Z,16.45
2023-05-17T14:53:53.014Z,16.12
2023-05-17T14:56:20.491Z,16.13
2023-05-17T14:58:48.082Z,16.41
2023-05-17T15:01:17.858Z,15.83
2023-05-17T15:03:48.133Z,15.74
2023-05-17T15:06:15.743Z,16.09
2023-05-17T15:08:46.527Z,16.38
2023-05-17T15:11:20.081Z,16.35
2023-05-17T15:13:51.828Z,17.03
2023-05-17T15:16:21.046Z,16.95
2023-05-17T15:18:48.906Z,17.20
2023-05-17T15:21:21.628Z,16.68
2023-05-17T15:23:50.735Z,16.73
2023-05-17T15:26:18.387Z,16.56
2023-05-17T15:28:46.018Z,15.97
2023-05-17T15:31:18.832Z,16.14
2023-05-17T15:33:47.841Z,16.40
2023-05-17T15:36:18.528Z,16.87
2023-05-17T15:38:46.550Z,17.42
2023-05-17T15:41:19.896Z,18.36
2023-05-17T15:43:47.515Z,16.93
2023-05-17T15:46:15.051Z,16.35
2023-05-17T15:48:58.989Z,16.44
2023-05-17T15:51:26.641Z,16.08
2023-05-17T15:53:54.539Z,16.38
2023-05-17T15:56:23.417Z,16.03
2023-05-17T15:59:25.094Z,16.13
2023-05-17T16:01:52.596Z,16.09
2023-05-17T16:04:22.174Z,16.02
2023-05-17T16:06:50.524Z,15.95
2023-05-17T16:09:21.588Z,16.23
2023-05-17T16:11:49.818Z,16.34
2023-05-17T16:14:19.164Z,16.47
2023-05-17T16:19:34.566Z,16.75
2023-05-17T16:22:02.618Z,17.88
2023-05-17T16:24:30.988Z,18.39
2023-05-17T16:26:59.100Z,18.12
2023-05-17T16:29:27.462Z,18.54
2023-05-17T16:31:55.126Z,18.38
2023-05-17T16:34:24.682Z,17.59
2023-05-17T16:36:53.659Z,17.54
2023-05-17T16:39:35.756Z,18.61
2023-05-17T16:42:03.697Z,16.05
2023-05-17T16:44:34.373Z,16.18
2023-05-17T16:47:14.642Z,16.19
2023-05-17T16:49:43.561Z,16.31
2023-05-17T16:52:12.587Z,16.76
2023-05-17T16:54:41.223Z,16.47
2023-05-17T16:57:09.133Z,16.58
2023-05-17T16:59:45.273Z,16.07
2023-05-17T17:02:12.935Z,15.74
2023-05-17T17:04:40.554Z,15.58
2023-05-17T17:07:08.002Z,15.78
2023-05-17T17:09:36.766Z,15.93
2023-05-17T17:12:31.463Z,16.24
2023-05-17T17:14:59.436Z,15.63
2023-05-17T17:17:27.692Z,15.74
2023-05-17T17:20:13.258Z,16.07
2023-05-17T17:22:41.386Z,15.84
2023-05-17T17:25:11.944Z,15.70
2023-05-17T17:27:39.501Z,15.56
2023-05-17T17:30:08.378Z,15.65
2023-05-17T17:32:36.202Z,15.61
2023-05-17T17:35:03.808Z,15.70
2023-05-17T17:37:31.374Z,15.31
2023-05-17T17:40:06.632Z,15.19
2023-05-17T17:42:35.564Z,15.46
2023-05-17T17:45:10.762Z,15.21
2023-05-17T17:47:38.431Z,15.03
2023-05-17T17:50:07.098Z,14.85
2023-05-17T17:52:51.251Z,15.09
2023-05-17T17:55:18.979Z,15.43
2023-05-17T17:57:47.967Z,15.05
2023-05-17T18:00:16.582Z,15.14
2023-05-17T18:02:57.591Z,14.98
2023-05-17T18:05:28.413Z,15.14
2023-05-17T18:07:55.976Z,15.16
2023-05-17T18:10:24.149Z,14.67
2023-05-17T18:12:53.451Z,14.69
2023-05-17T18:15:30.512Z,14.68
2023-05-17T18:18:00.707Z,14.59
2023-05-17T18:20:58.630Z,14.74
2023-05-17T18:23:29.275Z,14.64
2023-05-17T18:28:43.859Z,14.94
2023-05-17T18:31:42.032Z,14.71
2023-05-17T18:34:07.986Z,14.85
2023-05-17T18:36:35.878Z,14.44
2023-05-17T18:39:03.535Z,14.20
2023-05-17T18:41:32.873Z,14.68
2023-05-17T18:44:07.924Z,15.07
2023-05-17T18:46:37.572Z,14.77
2023-05-17T18:49:21.856Z,14.87
2023-05-17T18:51:49.772Z,14.50
2023-05-17T18:54:17.936Z,14.72
2023-05-17T18:56:51.806Z,14.88
2023-05-17T18:59:49.928Z,14.69
2023-05-17T19:05:39.968Z,14.37
2023-05-17T19:08:30.998Z,14.89
2023-05-17T19:11:01.172Z,14.93
2023-05-17T19:13:36.536Z,14.69
2023-05-17T19:16:06.172Z,15.47
2023-05-17T19:18:40.034Z,15.28
2023-05-17T19:21:07.855Z,14.82
2023-05-17T19:23:36.186Z,14.38
2023-05-17T19:26:03.683Z,14.98
2023-05-17T19:28:31.668Z,14.43
2023-05-17T19:30:59.429Z,14.56
2023-05-17T19:33:28.394Z,14.69
2023-05-17T19:35:56.021Z,14.30
2023-05-17T19:38:23.706Z,14.74
2023-05-17T19:40:51.361Z,14.08
2023-05-17T19:43:18.856Z,14.84
2023-05-17T19:45:46.456Z,14.62
2023-05-17T19:48:13.993Z,14.36
2023-05-17T19:50:42.813Z,14.49
2023-05-17T19:53:10.384Z,13.73
2023-05-17T19:55:44.431Z,14.30
2023-05-17T19:58:14.989Z,14.03
2023-05-17T20:00:43.135Z,14.08
2023-05-17T20:03:10.752Z,14.08
2023-05-17T20:05:38.786Z,14.18
2023-05-17T20:08:09.804Z,14.65
2023-05-17T20:10:46.198Z,13.75
2023-05-17T20:13:13.773Z,14.42
2023-05-17T20:15:41.376Z,14.49
2023-05-17T20:18:09.161Z,14.41
2023-05-17T20:20:36.773Z,14.32
2023-05-17T20:23:04.291Z,14.39
2023-05-17T20:25:33.248Z,14.13
2023-05-17T20:28:00.888Z,14.40
2023-05-17T20:30:29.585Z,15.08
2023-05-17T20:32:59.498Z,13.94
2023-05-17T20:35:27.087Z,13.93
2023-05-17T20:37:54.855Z,13.33
2023-05-17T20:40:22.388Z,13.18
2023-05-17T20:42:54.575Z,13.85
2023-05-17T20:45:22.769Z,13.82
2023-05-17T20:47:51.270Z,13.63
2023-05-17T20:50:22.766Z,14.22
2023-05-17T20:52:50.670Z,14.07
2023-05-17T20:55:18.258Z,13.69
2023-05-17T20:57:46.856Z,13.23
2023-05-17T21:00:18.053Z,12.87
2023-05-17T21:02:45.896Z,12.85
2023-05-17T21:05:13.780Z,12.98
2023-05-17T21:07:59.803Z,13.13
2023-05-17T21:10:27.559Z,13.40
2023-05-17T21:13:01.064Z,13.32
2023-05-17T21:15:29.967Z,13.59
2023-05-17T21:17:57.522Z,13.14
2023-05-17T21:20:25.091Z,13.29
2023-05-17T21:22:52.579Z,13.51
2023-05-17T21:25:20.190Z,13.64
2023-05-17T21:27:47.696Z,12.91
2023-05-17T21:30:15.415Z,13.88
2023-05-17T21:32:44.476Z,13.73
2023-05-17T21:35:12.144Z,13.59
2023-05-17T21:37:40.183Z,13.64
2023-05-17T21:40:09.087Z,13.55
2023-05-17T21:42:37.159Z,13.33
2023-05-17T21:45:05.435Z,13.82
2023-05-17T21:47:35.845Z,13.14
2023-05-17T21:50:05.202Z,13.61
2023-05-17T21:52:33.000Z,13.56
2023-05-17T21:55:00.655Z,13.28
2023-05-17T21:57:28.228Z,12.99
2023-05-17T21:59:55.757Z,12.80
2023-05-17T22:02:23.365Z,12.84
2023-05-17T22:04:51.126Z,13.13
2023-05-17T22:07:20.362Z,12.52
2023-05-17T22:09:48.202Z,12.95
2023-05-17T22:12:15.786Z,13.36
2023-05-17T22:14:45.427Z,13.23
2023-05-17T22:19:59.689Z,12.69
2023-05-17T22:22:28.464Z,13.28
2023-05-17T22:24:56.124Z,13.21
2023-05-17T22:27:23.603Z,12.73
2023-05-17T22:29:51.332Z,12.83
2023-05-17T22:32:18.797Z,12.60
2023-05-17T22:34:46.529Z,12.23
2023-05-17T22:37:14.063Z,12.43
2023-05-17T22:39:43.492Z,12.40
2023-05-17T22:42:13.389Z,12.49
2023-05-17T22:44:44.788Z,11.50
2023-05-17T22:47:14.879Z,12.20
2023-05-17T22:49:47.484Z,12.23
2023-05-17T22:52:15.976Z,12.18
2023-05-17T22:54:44.785Z,12.25
2023-05-17T22:57:12.352Z,11.91
2023-05-17T22:59:40.142Z,11.75
2023-05-17T23:02:07.627Z,11.98
2023-05-17T23:04:37.852Z,11.46
2023-05-17T23:07:05.654Z,12.92
2023-05-17T23:09:34.091Z,12.05
2023-05-17T23:12:05.678Z,11.30
2023-05-17T23:14:34.152Z,12.33
2023-05-17T23:17:02.469Z,12.65
2023-05-17T23:19:30.478Z,11.58
2023-05-17T23:22:02.703Z,12.58
2023-05-17T23:24:30.360Z,11.57
2023-05-17T23:26:58.850Z,12.19
2023-05-17T23:29:27.713Z,12.41
2023-05-17T23:31:55.389Z,11.90
2023-05-17T23:34:24.022Z,12.30
2023-05-17T23:36:51.655Z,11.98
2023-05-17T23:39:19.211Z,11.74
2023-05-17T23:41:47.201Z,11.60
2023-05-17T23:44:14.841Z,11.92
2023-05-17T23:46:44.563Z,11.95
2023-05-17T23:49:12.346Z,12.47
2023-05-17T23:51:39.918Z,11.93
2023-05-17T23:54:09.490Z,12.58
2023-05-17T23:56:37.011Z,11.62
2023-05-17T23:59:14.347Z,12.26
